Time;durP1;ratioP1;P1;durP2;ratioP2;P2;SDS_P1;SDS_P2;PMS_P1;PMS_P2;Temp;Humidity;BMP_temperature;BMP_pressure;BME280_temperature;BME280_humidity;BME280_pressure;Samples;Min_cycle;Max_cycle;Signal;HPM_P1;HPM_P2
2021/08/26 00:00:17;;;;;;;0.15;0.10;;;;;;;17.33;56.52;101043.91;4971904;28;20046;-73
2021/08/26 00:08:16;;;;;;;0.82;0.10;;;;;;;17.47;56.57;101050.34;4987244;28;20050;-72
2021/08/26 00:10:43;;;;;;;0.22;0.20;;;;;;;17.49;56.93;101039.81;4982634;28;20018;-73
2021/08/26 00:13:11;;;;;;;0.10;0.10;;;;;;;17.53;56.76;101040.84;4951049;28;20031;-71
2021/08/26 00:15:42;;;;;;;0.15;0.15;;;;;;;17.54;56.66;101036.97;4965666;28;20372;-74
2021/08/26 00:18:08;;;;;;;0.17;0.10;;;;;;;17.55;56.95;101035.88;4956369;28;20022;-72
2021/08/26 00:20:34;;;;;;;0.10;0.10;;;;;;;17.55;56.63;101046.94;4935433;28;20118;-73
2021/08/26 00:22:59;;;;;;;0.00;0.00;;;;;;;17.50;56.61;101033.16;4938642;28;20055;-71
2021/08/26 00:25:25;;;;;;;0.08;0.08;;;;;;;17.53;56.82;101032.56;4963876;28;20437;-73
2021/08/26 00:27:53;;;;;;;0.17;0.13;;;;;;;17.56;56.90;101014.56;4954072;28;20073;-73
2021/08/26 00:30:20;;;;;;;0.30;0.30;;;;;;;17.67;57.03;101023.53;4964131;28;20448;-74
2021/08/26 00:33:09;;;;;;;0.10;0.10;;;;;;;17.74;56.58;101032.25;4977321;28;20045;-73
2021/08/26 00:35:35;;;;;;;0.20;0.20;;;;;;;17.78;56.81;101033.31;4966180;28;20033;-73
2021/08/26 00:38:01;;;;;;;0.13;0.13;;;;;;;17.73;56.83;101022.34;4980054;28;20031;-73
2021/08/26 00:40:27;;;;;;;0.20;0.20;;;;;;;17.75;56.74;101036.69;4981148;28;20097;-72
2021/08/26 00:42:52;;;;;;;0.15;0.10;;;;;;;17.71;56.78;101016.28;4979293;28;20082;-71
2021/08/26 00:45:19;;;;;;;0.10;0.10;;;;;;;17.75;56.73;101023.66;4980127;28;20094;-71
2021/08/26 00:47:47;;;;;;;0.20;0.20;;;;;;;17.73;56.82;101019.56;4979812;28;20034;-71
2021/08/26 00:50:35;;;;;;;0.70;0.20;;;;;;;17.78;56.56;101025.00;4980311;28;20018;-72
2021/08/26 00:53:09;;;;;;;0.35;0.35;;;;;;;17.83;57.05;101024.09;4935593;28;20093;-71
2021/08/26 01:02:22;;;;;;;0.50;0.50;;;;;;;18.07;56.32;101021.28;5242098;23;20051;-72
2021/08/26 01:05:45;;;;;;;0.50;0.50;;;;;;;18.07;56.28;101024.03;4946059;29;20039;-71
2021/08/26 01:09:05;;;;;;;0.70;0.20;;;;;;;18.13;56.33;101025.59;4955052;28;20031;-71
2021/08/26 01:11:41;;;;;;;0.60;0.60;;;;;;;18.18;56.68;101020.00;4938449;29;20122;-72
2021/08/26 01:14:10;;;;;;;1.90;0.43;;;;;;;18.17;56.26;101012.00;4958413;28;20095;-73
2021/08/26 01:16:41;;;;;;;1.98;0.60;;;;;;;18.23;56.35;101017.13;4931220;28;20031;-71
2021/08/26 01:19:15;;;;;;;1.80;1.70;;;;;;;18.30;56.94;101022.28;4942012;28;20039;-71
2021/08/26 01:22:15;;;;;;;2.38;2.03;;;;;;;18.47;56.56;101027.22;4928548;28;20055;-73
2021/08/26 01:38:00;;;;;;;1.20;1.20;;;;;;;18.56;56.16;101019.03;4742926;26;20385;-73
2021/08/26 01:40:42;;;;;;;0.90;0.90;;;;;;;18.62;55.68;101021.41;4906005;29;20044;-72
2021/08/26 01:43:12;;;;;;;1.10;1.10;;;;;;;18.64;56.38;101019.13;4894628;29;20023;-72
2021/08/26 01:46:14;;;;;;;0.80;0.80;;;;;;;18.70;55.78;101019.88;4902368;29;20036;-72
2021/08/26 01:48:40;;;;;;;1.15;1.10;;;;;;;18.71;55.80;101023.47;4896792;29;20036;-72
2021/08/26 01:51:05;;;;;;;1.10;1.00;;;;;;;18.69;55.65;101009.09;4885872;29;20032;-73
2021/08/26 01:53:31;;;;;;;1.13;1.13;;;;;;;18.76;55.67;101017.81;4887417;29;20123;-73
2021/08/26 01:55:56;;;;;;;1.10;1.00;;;;;;;18.73;55.51;101012.91;4870855;29;20067;-74
2021/08/26 01:58:22;;;;;;;0.85;0.85;;;;;;;18.70;56.00;101002.44;4871981;29;20356;-74
2021/08/26 02:00:47;;;;;;;0.60;0.60;;;;;;;18.74;55.54;101014.53;4904390;29;20056;-74
2021/08/26 02:06:44;;;;;;;;;;;;;;;;;;;;;
2021/08/26 02:09:21;;;;;;;0.50;0.50;;;;;;;18.70;55.82;101013.50;4878901;29;20112;-73
2021/08/26 02:12:25;;;;;;;0.47;0.47;;;;;;;18.67;55.47;101001.94;4881986;29;20108;-71
2021/08/26 02:18:17;;;;;;;0.57;0.57;;;;;;;18.77;55.53;101008.38;5009107;23;20043;-73
2021/08/26 02:25:59;;;;;;;1.00;1.00;;;;;;;18.78;55.35;101005.31;5030039;23;20055;-72
2021/08/26 02:28:25;;;;;;;1.33;1.30;;;;;;;18.78;55.92;100998.97;4951817;28;20402;-72
2021/08/26 02:30:50;;;;;;;1.48;1.48;;;;;;;18.79;55.39;100995.03;4957420;28;20383;-72
2021/08/26 02:33:16;;;;;;;1.30;1.30;;;;;;;18.83;55.90;101001.59;4961181;28;20051;-72
2021/08/26 02:35:41;;;;;;;1.15;1.15;;;;;;;18.86;55.75;101006.56;4956968;28;20127;-72
2021/08/26 02:38:13;;;;;;;1.23;1.13;;;;;;;18.85;55.45;100999.34;4958025;28;20086;-72
2021/08/26 02:44:11;;;;;;;0.90;0.90;;;;;;;18.85;55.50;100999.34;5091709;23;20062;-72
2021/08/26 02:46:36;;;;;;;0.80;0.80;;;;;;;18.87;55.68;101005.44;4966429;28;20110;-71
2021/08/26 02:49:11;;;;;;;0.95;0.95;;;;;;;18.88;55.30;101003.47;4951584;29;20347;-73
2021/08/26 02:52:07;;;;;;;1.17;1.17;;;;;;;18.83;55.66;100993.28;4935478;29;20042;-72
2021/08/26 02:54:38;;;;;;;0.70;0.70;;;;;;;18.84;55.13;100995.75;4936868;28;20083;-70
2021/08/26 02:57:04;;;;;;;0.73;0.73;;;;;;;18.84;55.23;101003.25;4926676;29;20031;-72
2021/08/26 02:59:29;;;;;;;0.68;0.68;;;;;;;18.83;55.61;100993.28;4947345;28;20035;-71
2021/08/26 03:01:55;;;;;;;1.30;1.30;;;;;;;18.89;55.76;101011.50;4942610;29;20023;-72
2021/08/26 03:04:20;;;;;;;0.90;0.90;;;;;;;18.92;55.27;101010.88;4962080;28;20035;-71
2021/08/26 03:06:46;;;;;;;0.85;0.82;;;;;;;18.93;55.08;101001.44;4973458;28;20041;-73
2021/08/26 03:09:12;;;;;;;0.82;0.82;;;;;;;18.92;55.17;101005.31;4942420;28;20039;-72
2021/08/26 03:11:38;;;;;;;0.60;0.60;;;;;;;18.92;55.21;100998.97;4948783;29;20042;-72
2021/08/26 03:14:03;;;;;;;0.95;0.95;;;;;;;18.92;55.65;100999.78;4928288;28;20031;-72
2021/08/26 03:16:29;;;;;;;0.55;0.55;;;;;;;18.95;55.53;101001.13;4947967;29;20031;-72
2021/08/26 03:18:55;;;;;;;1.00;1.00;;;;;;;18.94;55.47;101003.09;4942762;29;20032;-72
2021/08/26 03:21:20;;;;;;;0.82;0.82;;;;;;;19.01;55.48;101008.19;4944986;29;20035;-71
2021/08/26 03:23:46;;;;;;;0.93;0.93;;;;;;;19.00;55.79;101006.56;4946550;28;20062;-71
2021/08/26 03:26:12;;;;;;;1.20;1.20;;;;;;;19.00;55.63;101001.84;4902891;28;20063;-72
2021/08/26 03:28:38;;;;;;;1.38;1.33;;;;;;;18.95;55.49;100990.88;4941927;28;20035;-73
2021/08/26 03:31:04;;;;;;;1.30;1.13;;;;;;;19.03;55.34;100997.63;4946648;29;20031;-73
2021/08/26 03:33:29;;;;;;;1.13;1.13;;;;;;;18.97;55.56;100990.56;4953391;28;20049;-73
2021/08/26 03:35:55;;;;;;;0.93;0.93;;;;;;;19.01;55.27;100992.41;4951327;28;20063;-70
2021/08/26 03:38:21;;;;;;;0.93;0.93;;;;;;;18.96;55.87;100984.19;4930631;29;20031;-70
2021/08/26 03:40:46;;;;;;;1.45;1.40;;;;;;;18.97;55.52;100988.59;4954639;28;20043;-71
2021/08/26 03:43:12;;;;;;;0.90;0.90;;;;;;;18.94;55.63;100980.91;4927900;29;20043;-70
2021/08/26 03:56:43;;;;;;;0.80;0.80;;;;;;;18.98;55.32;100979.16;1354546;26;20117;-72
2021/08/26 03:59:09;;;;;;;1.30;1.05;;;;;;;19.00;55.46;100989.94;4983488;28;20122;-72
2021/08/26 04:01:34;;;;;;;1.23;1.13;;;;;;;19.00;55.98;100982.44;4962523;28;20030;-72
2021/08/26 04:04:00;;;;;;;1.75;1.73;;;;;;;18.98;56.03;100981.94;4967824;28;20035;-72
2021/08/26 04:06:26;;;;;;;2.03;1.92;;;;;;;18.95;56.08;100978.94;4963321;28;20403;-73
2021/08/26 04:08:51;;;;;;;1.98;1.88;;;;;;;18.92;56.10;100972.06;4964625;28;20031;-73
2021/08/26 04:11:47;;;;;;;1.67;1.58;;;;;;;18.88;56.17;100965.53;4928350;28;20036;-73
2021/08/26 04:17:49;;;;;;;2.97;2.78;;;;;;;18.94;56.52;100967.06;4858313;29;21750;-72
2021/08/26 04:20:15;;;;;;;2.50;2.40;;;;;;;18.94;57.04;100967.06;4869939;29;20149;-72
2021/08/26 04:22:40;;;;;;;2.58;2.38;;;;;;;18.95;56.80;100949.31;4856315;29;20061;-70
2021/08/26 04:25:07;;;;;;;2.50;2.40;;;;;;;18.99;56.29;100960.59;4873063;29;20041;-71
2021/08/26 04:27:32;;;;;;;2.67;2.50;;;;;;;18.96;56.94;100959.25;4907126;29;20476;-73
2021/08/26 04:29:58;;;;;;;2.30;2.20;;;;;;;18.94;56.96;100953.19;4933614;29;20039;-71
2021/08/26 04:32:23;;;;;;;1.85;1.75;;;;;;;18.90;57.00;100956.91;4928522;29;20115;-72
2021/08/26 04:34:48;;;;;;;1.77;1.67;;;;;;;18.89;56.86;100956.06;4935716;29;20029;-71
2021/08/26 04:37:14;;;;;;;1.65;1.55;;;;;;;18.86;57.23;100956.69;4923340;29;20384;-71
2021/08/26 04:39:39;;;;;;;1.30;1.30;;;;;;;18.83;57.60;100951.75;4930344;29;20059;-72
2021/08/26 04:42:05;;;;;;;1.65;1.63;;;;;;;18.79;57.50;100959.03;4934910;29;20412;-71
2021/08/26 04:44:30;;;;;;;1.73;1.60;;;;;;;18.81;57.02;100962.31;4933111;29;20032;-72
2021/08/26 04:46:56;;;;;;;2.05;1.95;;;;;;;18.81;57.58;100954.81;4923911;29;20113;-72
2021/08/26 04:49:21;;;;;;;1.92;1.83;;;;;;;18.80;57.16;100941.28;4934126;29;20494;-71
2021/08/26 04:51:47;;;;;;;2.20;2.10;;;;;;;18.81;57.10;100948.47;4942284;29;20404;-71
2021/08/26 04:54:12;;;;;;;2.55;2.35;;;;;;;18.80;57.66;100957.91;4940773;29;20442;-71
2021/08/26 04:56:38;;;;;;;2.38;2.28;;;;;;;18.77;57.64;100948.25;4937543;29;20507;-72
2021/08/26 04:59:04;;;;;;;2.25;1.95;;;;;;;18.79;57.35;100939.63;4930787;29;20038;-72
2021/08/26 05:01:29;;;;;;;2.08;1.98;;;;;;;18.78;57.53;100949.09;4938580;29;20035;-73
2021/08/26 05:03:55;;;;;;;1.38;1.27;;;;;;;18.78;57.42;100946.31;4938391;29;20424;-73
2021/08/26 05:06:20;;;;;;;1.85;1.75;;;;;;;18.77;57.44;100947.44;4922864;29;20027;-72
2021/08/26 05:08:46;;;;;;;1.55;1.45;;;;;;;18.76;57.74;100951.34;4924068;29;20016;-72
2021/08/26 05:11:19;;;;;;;3.35;3.25;;;;;;;18.76;58.14;100943.88;4922660;29;20503;-72
2021/08/26 05:13:45;;;;;;;2.50;2.40;;;;;;;18.79;57.85;100946.00;4936785;28;20100;-73
2021/08/26 05:16:12;;;;;;;3.38;3.17;;;;;;;18.78;58.21;100944.34;4921918;29;20055;-72
2021/08/26 05:18:46;;;;;;;2.92;2.72;;;;;;;18.80;58.43;100950.41;4936712;29;20059;-72
2021/08/26 05:21:14;;;;;;;2.85;2.75;;;;;;;18.77;58.48;100942.72;4938759;29;20028;-71
2021/08/26 05:23:54;;;;;;;;;;;;;;;;;;;;;
2021/08/26 05:30:15;;;;;;;2.70;2.60;;;;;;;18.83;58.08;100952.56;4959856;28;20043;-73
2021/08/26 05:32:41;;;;;;;4.93;2.15;;;;;;;18.79;58.22;100939.63;4957509;28;20110;-72
2021/08/26 05:35:07;;;;;;;2.72;2.63;;;;;;;18.77;58.69;100933.59;4944136;29;20058;-72
2021/08/26 05:37:32;;;;;;;3.28;3.17;;;;;;;18.77;58.44;100945.47;4961395;28;20062;-73
2021/08/26 05:39:58;;;;;;;2.47;2.38;;;;;;;18.77;58.78;100941.91;4943158;29;20031;-72
2021/08/26 05:42:23;;;;;;;3.95;3.65;;;;;;;18.77;58.79;100944.66;4941633;28;20027;-72
2021/08/26 05:44:49;;;;;;;3.53;3.33;;;;;;;18.77;58.71;100941.91;4956893;28;20142;-73
2021/08/26 05:47:14;;;;;;;2.95;2.85;;;;;;;18.78;58.85;100954.63;4956927;28;20098;-73
2021/08/26 05:49:40;;;;;;;3.90;3.70;;;;;;;18.77;59.01;100964.06;4958651;28;20027;-72
2021/08/26 05:52:05;;;;;;;2.78;2.67;;;;;;;18.76;59.63;100974.34;4966295;28;20049;-72
2021/08/26 05:54:31;;;;;;;3.05;2.85;;;;;;;18.76;58.88;100974.34;4967737;28;20031;-73
2021/08/26 05:56:59;;;;;;;2.70;2.60;;;;;;;18.75;59.06;100981.00;4967410;28;20031;-72
2021/08/26 05:59:25;;;;;;;2.35;2.25;;;;;;;18.77;58.98;100981.50;4949294;29;20117;-73
2021/08/26 06:01:50;;;;;;;4.13;3.92;;;;;;;18.78;59.20;100982.34;4941581;28;20074;-72
2021/08/26 06:04:19;;;;;;;5.43;4.82;;;;;;;18.77;59.22;100975.16;4957877;28;20039;-72
2021/08/26 06:07:26;;;;;;;6.15;5.65;;;;;;;18.81;59.55;100982.53;4928115;28;20066;-73
2021/08/26 06:10:15;;;;;;;4.55;4.35;;;;;;;18.84;59.56;100983.88;4938836;29;20031;-72
2021/08/26 06:12:46;;;;;;;4.00;3.80;;;;;;;18.80;59.55;100983.66;4939365;28;20034;-72
2021/08/26 06:15:18;;;;;;;3.90;3.70;;;;;;;18.81;59.91;100981.72;4938302;29;20035;-74
2021/08/26 06:17:46;;;;;;;4.65;4.35;;;;;;;18.80;59.45;100991.97;4920479;28;20039;-73
2021/08/26 06:21:07;;;;;;;3.80;3.60;;;;;;;18.83;59.22;100979.44;4932748;28;20035;-75
2021/08/26 06:27:26;;;;;;;3.90;3.70;;;;;;;18.79;59.63;100986.72;4961189;28;20054;-73
2021/08/26 06:29:52;;;;;;;4.80;4.32;;;;;;;18.78;60.14;100987.88;4954807;28;20417;-72
2021/08/26 06:32:17;;;;;;;3.83;3.63;;;;;;;18.83;59.88;100998.84;4956519;28;20032;-74
2021/08/26 06:34:46;;;;;;;3.03;2.92;;;;;;;18.84;59.89;100997.72;4954326;28;20100;-71
2021/08/26 06:37:11;;;;;;;3.72;3.53;;;;;;;18.89;59.72;101000.41;4939188;29;20011;-73
2021/08/26 06:39:37;;;;;;;4.22;3.58;;;;;;;18.92;59.81;100988.69;4942022;28;20062;-70
2021/08/26 06:42:03;;;;;;;4.50;4.10;;;;;;;18.98;60.11;100994.97;4909333;28;20032;-71
2021/08/26 06:44:28;;;;;;;7.13;4.43;;;;;;;19.03;60.21;100994.88;4960248;28;20083;-72
2021/08/26 06:46:53;;;;;;;4.13;3.78;;;;;;;19.06;59.90;100996.22;4954574;28;20027;-72
2021/08/26 06:49:19;;;;;;;4.55;4.25;;;;;;;19.08;60.06;100996.69;4953534;28;20050;-71
2021/08/26 06:51:44;;;;;;;5.68;3.75;;;;;;;19.10;59.63;101000.81;4941983;29;20027;-71
2021/08/26 06:54:11;;;;;;;4.38;2.78;;;;;;;19.07;59.96;101000.59;4923566;28;20046;-72
2021/08/26 06:56:41;;;;;;;3.83;3.38;;;;;;;19.11;60.19;101001.63;4914015;28;20035;-71
2021/08/26 06:59:07;;;;;;;2.60;2.50;;;;;;;19.15;59.65;101002.66;4907238;28;20046;-71
2021/08/26 07:01:34;;;;;;;2.70;2.60;;;;;;;19.17;59.77;101000.38;4942575;28;20039;-71
2021/08/26 07:04:01;;;;;;;3.97;3.72;;;;;;;19.16;59.60;100998.75;4940861;28;20034;-73
2021/08/26 07:06:28;;;;;;;2.83;2.72;;;;;;;19.22;59.61;100997.50;4926033;28;20570;-72
2021/08/26 07:08:58;;;;;;;2.33;2.22;;;;;;;19.28;59.70;100999.03;4939892;29;20042;-72
2021/08/26 07:11:24;;;;;;;3.00;2.75;;;;;;;19.32;59.97;101002.81;4927766;28;20130;-73
2021/08/26 07:13:49;;;;;;;3.45;3.25;;;;;;;19.33;59.78;101001.72;4959705;28;20031;-72
2021/08/26 07:16:22;;;;;;;3.20;3.00;;;;;;;19.34;59.86;101010.84;4908343;28;20189;-73
2021/08/26 07:18:52;;;;;;;3.63;3.47;;;;;;;19.29;59.98;101002.63;4928765;28;20101;-73
2021/08/26 07:22:20;;;;;;;3.38;3.08;;;;;;;19.40;60.03;101014.31;4938457;28;20508;-74
2021/08/26 07:25:10;;;;;;;;;;;;;;;;;;;;;
2021/08/26 07:27:38;;;;;;;2.95;2.85;;;;;;;19.45;59.71;101001.16;4966420;28;20187;-73
2021/08/26 07:31:06;;;;;;;;;;;;;;;;;;;;;
2021/08/26 07:33:58;;;;;;;2.55;2.45;;;;;;;19.81;58.89;100997.56;4975522;28;20098;-72
2021/08/26 07:36:33;;;;;;;2.60;2.40;;;;;;;19.98;58.63;101019.09;4959391;28;20067;-72
2021/08/26 07:39:01;;;;;;;2.28;2.17;;;;;;;20.00;58.53;101027.09;4961175;28;20497;-72
2021/08/26 07:41:30;;;;;;;3.35;3.15;;;;;;;20.01;58.85;101035.09;4946724;28;20050;-71
2021/08/26 07:44:14;;;;;;;4.35;2.83;;;;;;;19.94;58.64;101023.63;3237065;26;20047;-72
2021/08/26 07:46:40;;;;;;;2.78;2.67;;;;;;;20.04;58.75;101034.47;5025022;23;20131;-70
2021/08/26 07:49:07;;;;;;;2.58;2.47;;;;;;;20.11;58.57;101034.03;4910123;29;20088;-72
2021/08/26 07:51:33;;;;;;;2.80;2.63;;;;;;;20.10;58.79;101037.13;4900505;29;20036;-77
2021/08/26 07:53:59;;;;;;;2.35;2.25;;;;;;;20.17;58.98;101043.06;4900641;29;20039;-74
2021/08/26 07:56:24;;;;;;;2.65;2.47;;;;;;;20.14;58.65;101046.47;4908991;29;20050;-74
2021/08/26 07:58:50;;;;;;;2.42;2.33;;;;;;;20.13;58.81;101036.50;4917118;29;20028;-74
2021/08/26 08:04:18;;;;;;;1.75;1.65;;;;;;;20.20;58.83;101042.44;4626416;26;20080;-73
2021/08/26 08:06:43;;;;;;;2.42;2.10;;;;;;;20.14;58.80;101046.47;4892754;29;20176;-74
2021/08/26 08:09:09;;;;;;;0.90;0.90;;;;;;;20.11;59.18;101045.16;4894336;29;20024;-71
2021/08/26 08:11:34;;;;;;;1.05;1.05;;;;;;;20.10;59.06;101031.56;4902706;29;20036;-71
2021/08/26 08:14:01;;;;;;;1.52;0.90;;;;;;;20.13;58.46;101036.50;4879875;29;20024;-73
2021/08/26 08:16:27;;;;;;;1.13;1.08;;;;;;;20.16;58.67;101041.41;4906006;29;20089;-73
2021/08/26 08:18:52;;;;;;;1.10;1.02;;;;;;;20.24;58.42;101029.56;4894026;29;20024;-72
2021/08/26 08:21:18;;;;;;;1.20;1.10;;;;;;;20.32;58.07;101033.50;4893814;29;20043;-72
2021/08/26 08:23:43;;;;;;;1.33;1.23;;;;;;;20.43;58.13;101034.91;4896837;29;20044;-73
2021/08/26 08:26:10;;;;;;;0.82;0.82;;;;;;;20.65;57.51;101031.25;4894477;29;20028;-72
2021/08/26 08:28:36;;;;;;;0.52;0.52;;;;;;;20.94;57.26;101043.84;4895741;29;20032;-71
2021/08/26 08:31:02;;;;;;;1.15;0.50;;;;;;;21.32;57.33;101046.06;4895432;29;20029;-73
2021/08/26 08:33:27;;;;;;;0.70;0.70;;;;;;;21.70;56.18;101044.66;4892458;29;20021;-73
2021/08/26 08:35:52;;;;;;;0.47;0.47;;;;;;;21.99;55.35;101038.44;4894159;29;20097;-73
2021/08/26 08:38:18;;;;;;;0.73;0.73;;;;;;;22.26;54.99;101034.47;4890499;29;20475;-72
2021/08/26 08:40:46;;;;;;;0.68;0.68;;;;;;;22.57;54.12;101035.41;4895518;29;20025;-76
2021/08/26 08:43:12;;;;;;;0.93;0.93;;;;;;;22.75;53.04;101031.41;4896819;29;20040;-73
2021/08/26 08:48:46;;;;;;;1.05;0.75;;;;;;;22.95;52.15;101029.81;4903524;29;20042;-77
2021/08/26 08:51:15;;;;;;;0.50;0.50;;;;;;;23.17;51.46;101031.56;4920255;29;20039;-76
2021/08/26 08:53:43;;;;;;;0.93;0.88;;;;;;;23.41;50.01;101035.69;4904683;29;20052;-76
2021/08/26 08:56:11;;;;;;;0.47;0.45;;;;;;;23.47;49.53;101033.50;4912165;29;20187;-76
2021/08/26 08:58:39;;;;;;;0.45;0.45;;;;;;;23.71;49.88;101049.56;4897915;29;20053;-76
2021/08/26 09:01:16;;;;;;;0.40;0.35;;;;;;;23.85;49.76;101044.53;4899666;29;20016;-76
2021/08/26 09:03:42;;;;;;;0.40;0.40;;;;;;;23.82;49.10;101031.25;4894454;29;20044;-75
2021/08/26 09:06:10;;;;;;;0.40;0.40;;;;;;;24.00;49.51;101036.72;4908520;29;20032;-74
2021/08/26 09:08:38;;;;;;;0.55;0.55;;;;;;;24.54;49.43;101045.03;4909823;29;20534;-75
2021/08/26 09:11:12;;;;;;;0.60;0.60;;;;;;;24.95;47.55;101041.63;4896114;29;20068;-76
2021/08/26 09:14:24;;;;;;;;;;;;;;;;;;;;;
2021/08/26 09:17:18;;;;;;;0.70;0.70;;;;;;;25.62;45.41;101044.94;4828509;29;20117;-74
2021/08/26 09:19:49;;;;;;;0.85;0.82;;;;;;;25.54;45.18;101041.13;4784729;29;20077;-73
2021/08/26 09:22:22;;;;;;;1.05;0.60;;;;;;;25.75;44.36;101038.13;4836565;29;20053;-71
2021/08/26 09:24:53;;;;;;;0.57;0.57;;;;;;;26.03;44.42;101030.94;4844731;29;20089;-73
2021/08/26 09:27:47;;;;;;;1.00;1.00;;;;;;;26.41;43.58;101033.19;4837747;29;20109;-71
2021/08/26 09:30:22;;;;;;;2.35;1.02;;;;;;;26.55;42.09;101020.75;4789278;29;20066;-72
2021/08/26 09:32:57;;;;;;;0.80;0.80;;;;;;;26.76;41.55;101026.09;4930797;23;20129;-72
2021/08/26 09:35:28;;;;;;;0.70;0.60;;;;;;;26.98;41.30;101021.81;4945319;28;20027;-75
2021/08/26 09:37:56;;;;;;;0.60;0.60;;;;;;;27.39;41.04;101027.22;4952553;28;20027;-76
2021/08/26 09:40:40;;;;;;;1.02;0.75;;;;;;;27.83;39.91;101029.75;4925278;28;20079;-74
2021/08/26 09:43:07;;;;;;;1.30;0.70;;;;;;;28.01;39.11;101030.16;4947525;28;20051;-75
2021/08/26 09:45:36;;;;;;;2.05;0.63;;;;;;;28.28;39.01;101038.69;4948741;28;20015;-74
2021/08/26 09:48:09;;;;;;;2.47;0.70;;;;;;;28.56;38.29;101044.84;4926211;29;21217;-74
2021/08/26 09:50:38;;;;;;;0.50;0.47;;;;;;;28.79;37.54;101034.81;4940163;28;20019;-72
2021/08/26 09:53:04;;;;;;;0.70;0.70;;;;;;;28.83;36.32;101041.31;4944030;28;20054;-74
2021/08/26 09:55:48;;;;;;;0.47;0.47;;;;;;;29.01;36.08;101044.41;4943630;28;20102;-74
2021/08/26 09:58:14;;;;;;;1.65;0.30;;;;;;;29.06;36.62;101042.09;4930789;28;20019;-73
2021/08/26 10:00:40;;;;;;;0.63;0.60;;;;;;;29.17;35.60;101039.44;4942794;28;20497;-73
2021/08/26 10:03:10;;;;;;;0.60;0.60;;;;;;;29.24;34.31;101033.94;4942176;28;20027;-74
2021/08/26 10:05:43;;;;;;;0.38;0.38;;;;;;;29.29;34.06;101041.25;4932860;29;20130;-73
2021/08/26 10:08:11;;;;;;;0.60;0.60;;;;;;;29.43;33.70;101052.72;4948273;28;20051;-73
2021/08/26 10:10:39;;;;;;;0.40;0.40;;;;;;;29.49;34.13;101038.31;4944539;28;20031;-74
2021/08/26 10:13:05;;;;;;;0.50;0.40;;;;;;;29.42;33.96;101037.03;4929897;29;20027;-72
2021/08/26 10:22:36;;;;;;;1.05;0.93;;;;;;;28.88;33.89;101035.34;5522634;23;20047;-73
2021/08/26 10:25:23;;;;;;;1.00;0.40;;;;;;;28.80;34.13;101036.44;4912715;29;20036;-73
2021/08/26 10:30:33;;;;;;;0.60;0.60;;;;;;;29.13;33.80;101043.38;5136577;23;20070;-73
2021/08/26 10:33:05;;;;;;;0.90;0.90;;;;;;;29.30;33.09;101042.88;4945989;28;20036;-73
2021/08/26 10:35:31;;;;;;;0.50;0.50;;;;;;;29.45;32.71;101037.44;4945749;28;20027;-73
2021/08/26 10:38:00;;;;;;;0.70;0.70;;;;;;;29.63;32.20;101029.22;4942485;28;20026;-73
2021/08/26 10:40:46;;;;;;;0.50;0.50;;;;;;;29.96;32.21;101034.09;4946579;28;20050;-75
2021/08/26 10:43:49;;;;;;;0.57;0.50;;;;;;;30.13;31.94;101034.72;4950048;28;20024;-76
2021/08/26 10:47:14;;;;;;;0.30;0.30;;;;;;;30.68;31.89;101039.69;4958337;28;20046;-75
2021/08/26 10:55:43;;;;;;;0.77;0.77;;;;;;;32.39;29.19;101048.75;5307162;23;20117;-73
2021/08/26 10:58:18;;;;;;;0.70;0.70;;;;;;;33.02;28.54;101040.72;4937438;29;20157;-74
2021/08/26 11:00:44;;;;;;;;;;;;;;;33.76;27.96;101040.97;4948062;29;20043;-73
2021/08/26 11:03:10;;;;;;;1.40;1.30;;;;;;;34.13;27.24;101033.91;4960286;28;20106;-73
2021/08/26 11:05:37;;;;;;;3.03;2.83;;;;;;;34.72;26.52;101029.47;4923655;28;20062;-73
2021/08/26 11:08:36;;;;;;;1.70;1.60;;;;;;;35.59;26.07;101032.28;4963762;28;20035;-74
2021/08/26 11:12:03;;;;;;;2.05;1.95;;;;;;;36.32;25.68;101021.56;4925968;29;20043;-74
2021/08/26 11:14:42;;;;;;;1.83;1.73;;;;;;;36.92;23.60;101023.88;5011389;23;20063;-74
2021/08/26 11:17:26;;;;;;;1.27;1.17;;;;;;;37.63;24.04;101023.72;4940381;29;20027;-73
2021/08/26 11:23:49;;;;;;;1.20;1.20;;;;;;;39.08;22.39;101011.31;4933505;28;20039;-73
2021/08/26 11:37:39;;;;;;;;;;;;;;;;;;;;;
2021/08/26 11:40:16;;;;;;;2.65;1.70;;;;;;;43.15;18.62;101021.88;4950128;28;20039;-73
2021/08/26 11:43:38;;;;;;;0.98;0.98;;;;;;;43.77;18.12;101028.53;4948858;28;20015;-76
2021/08/26 11:46:32;;;;;;;0.50;0.50;;;;;;;42.36;16.86;101023.19;4953187;28;20066;-73
2021/08/26 11:48:57;;;;;;;0.40;0.40;;;;;;;41.42;17.60;101014.53;5201934;23;20059;-73
2021/08/26 11:51:28;;;;;;;0.30;0.30;;;;;;;41.53;18.50;101022.72;4949069;28;20045;-74
2021/08/26 11:53:54;;;;;;;1.20;0.52;;;;;;;41.68;17.54;101025.84;4965101;28;20090;-75
2021/08/26 11:56:20;;;;;;;0.52;0.52;;;;;;;41.11;17.49;101029.56;4950888;28;20035;-74
2021/08/26 11:58:46;;;;;;;0.30;0.30;;;;;;;41.44;18.42;101019.78;4955252;28;20069;-73
2021/08/26 12:01:36;;;;;;;0.47;0.38;;;;;;;42.48;18.36;101027.22;4953758;28;20045;-73
2021/08/26 12:07:34;;;;;;;0.70;0.70;;;;;;;44.12;17.04;101019.44;5006782;23;20071;-74
2021/08/26 12:10:15;;;;;;;0.82;0.82;;;;;;;44.59;16.20;101017.13;5114181;23;20035;-73
2021/08/26 12:12:50;;;;;;;0.88;0.88;;;;;;;44.86;14.89;101016.16;4944355;28;20121;-73
2021/08/26 12:15:41;;;;;;;0.70;0.70;;;;;;;44.55;15.41;101017.28;4945926;28;20420;-73
2021/08/26 12:18:10;;;;;;;0.50;0.45;;;;;;;44.56;15.18;101018.09;4949640;28;20631;-73
2021/08/26 12:20:51;;;;;;;4.85;0.40;;;;;;;45.09;14.96;101013.75;4945197;28;20033;-74
2021/08/26 12:23:20;;;;;;;0.60;0.60;;;;;;;45.53;15.13;101013.00;4948003;28;20023;-73
2021/08/26 12:26:27;;;;;;;0.50;0.50;;;;;;;46.30;14.35;101010.34;4949616;28;20461;-73
2021/08/26 12:29:01;;;;;;;0.73;0.73;;;;;;;46.89;13.71;101015.03;4918788;28;20122;-73
2021/08/26 12:31:29;;;;;;;0.82;0.63;;;;;;;47.02;13.54;101006.84;4951052;28;20032;-74
2021/08/26 12:34:13;;;;;;;1.17;1.17;;;;;;;47.47;13.11;101005.72;4948156;28;20138;-74
2021/08/26 12:36:43;;;;;;;0.68;0.68;;;;;;;47.57;12.67;101015.81;4929253;29;20458;-72
2021/08/26 12:39:18;;;;;;;0.90;0.90;;;;;;;47.86;12.59;101011.06;4955398;28;20034;-73
2021/08/26 12:41:43;;;;;;;3.05;0.75;;;;;;;48.26;12.45;101006.34;4953825;28;20093;-75
2021/08/26 12:44:26;;;;;;;1.25;1.15;;;;;;;49.04;11.88;101013.81;4947390;28;21230;-75
2021/08/26 12:46:53;;;;;;;2.67;1.10;;;;;;;49.52;10.90;101003.34;4940565;28;20035;-76
2021/08/26 12:49:19;;;;;;;0.90;0.90;;;;;;;50.06;10.09;101005.22;4932344;28;20023;-75
2021/08/26 12:51:54;;;;;;;0.60;0.60;;;;;;;50.58;9.79;101014.56;4946545;28;20107;-75
2021/08/26 12:54:22;;;;;;;0.68;0.50;;;;;;;50.99;9.73;101013.88;4933258;28;20038;-76
2021/08/26 12:56:51;;;;;;;0.95;0.85;;;;;;;51.24;8.72;101011.06;4941800;28;20047;-74
2021/08/26 12:59:19;;;;;;;1.20;1.10;;;;;;;51.36;8.54;101003.84;4933326;28;20059;-74
2021/08/26 13:02:02;;;;;;;0.95;0.90;;;;;;;51.50;8.68;101011.41;4940942;28;20037;-74
2021/08/26 13:05:14;;;;;;;1.20;0.98;;;;;;;52.08;8.72;101015.41;4950318;28;20035;-74
2021/08/26 14:20:30;;;;;;;0.70;0.65;;;;;;;52.92;6.43;100953.63;4870513;29;20056;-77
2021/08/26 14:22:56;;;;;;;0.50;0.50;;;;;;;52.86;6.83;100957.41;4867593;29;20029;-77
2021/08/26 14:25:21;;;;;;;0.30;0.30;;;;;;;52.62;6.49;100942.88;4870247;29;20429;-77
2021/08/26 14:27:47;;;;;;;0.98;0.60;;;;;;;51.91;7.13;100953.56;4866649;29;20038;-76
2021/08/26 14:30:13;;;;;;;0.60;0.60;;;;;;;51.14;7.13;100955.28;4871870;29;20337;-77
2021/08/26 14:32:38;;;;;;;0.50;0.50;;;;;;;50.71;7.38;100942.06;4849121;29;20025;-79
2021/08/26 14:35:06;;;;;;;1.23;1.10;;;;;;;50.51;7.31;100942.41;4876078;29;20017;-77
2021/08/26 14:37:32;;;;;;;4.47;1.27;;;;;;;50.17;7.53;100933.81;4880637;29;20550;-79
2021/08/26 14:39:58;;;;;;;0.70;0.70;;;;;;;50.03;7.44;100939.38;4864860;29;20032;-78
2021/08/26 14:42:26;;;;;;;0.75;0.75;;;;;;;50.18;7.59;100930.38;4871790;29;20045;-77
2021/08/26 14:44:51;;;;;;;0.50;0.50;;;;;;;50.18;7.75;100941.19;4869548;29;20014;-74
2021/08/26 14:47:17;;;;;;;1.55;0.50;;;;;;;50.08;7.83;100926.97;4855496;29;20440;-76
2021/08/26 14:49:44;;;;;;;1.02;0.93;;;;;;;49.77;7.61;100937.59;4865357;29;20372;-75
2021/08/26 14:52:26;;;;;;;0.60;0.50;;;;;;;49.49;7.69;100916.47;4861166;29;20021;-78